createdAt,value
2022-11-20T00:01:32.616Z,15.30
2022-11-20T00:04:00.749Z,15.70
2022-11-20T00:06:29.113Z,14.80
2022-11-20T00:09:01.230Z,14.33
2022-11-20T00:11:30.836Z,14.63
2022-11-20T00:14:01.791Z,15.13
2022-11-20T00:16:31.867Z,16.40
2022-11-20T00:18:58.918Z,15.10
2022-11-20T00:21:45.967Z,16.43
2022-11-20T00:24:13.689Z,16.10
2022-11-20T00:26:40.757Z,15.40
2022-11-20T00:29:10.660Z,14.53
2022-11-20T00:31:37.930Z,16.57
2022-11-20T00:34:05.072Z,15.63
2022-11-20T00:36:34.880Z,16.00
2022-11-20T00:39:02.041Z,16.27
2022-11-20T00:41:31.131Z,16.83
2022-11-20T00:43:58.927Z,15.70
2022-11-20T00:46:28.572Z,16.03
2022-11-20T00:48:56.019Z,17.07
2022-11-20T00:51:25.826Z,16.27
2022-11-20T00:53:53.159Z,17.90
2022-11-20T00:56:21.195Z,17.40
2022-11-20T00:58:50.058Z,17.37
2022-11-20T01:01:25.430Z,17.13
2022-11-20T01:03:55.556Z,17.75
2022-11-20T01:06:38.607Z,17.40
2022-11-20T01:09:13.570Z,15.40
2022-11-20T01:11:44.452Z,16.63
2022-11-20T01:14:17.387Z,16.90
2022-11-20T01:16:49.365Z,17.70
2022-11-20T01:19:20.972Z,18.93
2022-11-20T01:21:55.059Z,17.10
2022-11-20T01:24:23.778Z,17.87
2022-11-20T01:26:52.550Z,18.40
2022-11-20T01:29:26.257Z,17.50
2022-11-20T01:31:54.089Z,18.50
2022-11-20T01:34:23.561Z,15.40
2022-11-20T01:36:52.243Z,17.53
2022-11-20T01:39:23.032Z,17.53
2022-11-20T01:42:10.699Z,19.53
2022-11-20T01:45:00.180Z,17.40
2022-11-20T01:47:43.696Z,18.70
2022-11-20T01:50:34.111Z,17.93
2022-11-20T01:53:14.274Z,15.60
2022-11-20T01:55:49.283Z,15.87
2022-11-20T01:58:21.180Z,18.77
2022-11-20T02:00:48.222Z,17.40
2022-11-20T02:03:19.740Z,20.07
2022-11-20T02:06:15.956Z,18.43
2022-11-20T02:08:43.010Z,17.85
2022-11-20T02:11:10.272Z,18.20
2022-11-20T02:13:46.541Z,18.73
2022-11-20T02:16:25.819Z,16.97
2022-11-20T02:18:55.793Z,19.23
2022-11-20T02:21:36.061Z,18.53
2022-11-20T02:24:14.298Z,17.80
2022-11-20T02:27:13.240Z,18.37
2022-11-20T02:30:11.910Z,17.33
2022-11-20T02:32:39.617Z,17.77
2022-11-20T02:35:30.914Z,18.17
2022-11-20T02:38:02.234Z,18.27
2022-11-20T02:40:32.428Z,16.97
2022-11-20T02:42:59.530Z,17.77
2022-11-20T02:45:26.619Z,18.57
2022-11-20T02:47:54.018Z,19.10
2022-11-20T02:50:21.442Z,17.73
2022-11-20T02:52:48.479Z,19.47
2022-11-20T02:55:15.584Z,17.87
2022-11-20T02:57:42.655Z,18.40
2022-11-20T03:00:10.629Z,19.63
2022-11-20T03:02:37.799Z,19.27
2022-11-20T03:05:05.181Z,19.27
2022-11-20T03:07:32.271Z,18.73
2022-11-20T03:09:59.371Z,17.80
2022-11-20T03:12:26.390Z,17.90
2022-11-20T03:14:53.590Z,19.07
2022-11-20T03:17:20.844Z,17.60
2022-11-20T03:19:47.928Z,18.60
2022-11-20T03:22:15.177Z,19.10
2022-11-20T03:24:42.736Z,18.77
2022-11-20T03:27:09.799Z,18.43
2022-11-20T03:29:39.475Z,18.77
2022-11-20T03:32:06.652Z,19.30
2022-11-20T03:34:33.669Z,19.83
2022-11-20T03:37:00.722Z,20.27
2022-11-20T03:39:27.856Z,17.97
2022-11-20T03:41:55.470Z,18.07
2022-11-20T03:44:23.236Z,19.30
2022-11-20T03:46:50.336Z,18.63
2022-11-20T03:49:17.364Z,20.47
2022-11-20T03:51:44.535Z,18.27
2022-11-20T03:54:11.654Z,20.63
2022-11-20T03:56:40.483Z,22.57
2022-11-20T03:59:08.095Z,22.90
2022-11-20T04:01:42.125Z,21.77
2022-11-20T04:04:11.273Z,21.47
2022-11-20T04:06:39.450Z,22.17
2022-11-20T04:09:07.798Z,21.60
2022-11-20T04:11:38.217Z,20.30
2022-11-20T04:14:13.594Z,20.13
2022-11-20T04:16:41.211Z,21.58
2022-11-20T04:19:13.223Z,19.90
2022-11-20T04:21:40.235Z,20.10
2022-11-20T04:24:07.926Z,19.27
2022-11-20T04:26:35.455Z,21.23
2022-11-20T04:29:02.908Z,19.40
2022-11-20T04:31:33.416Z,20.20
2022-11-20T04:34:08.590Z,18.47
2022-11-20T04:36:36.118Z,18.30
2022-11-20T04:39:07.047Z,19.20
2022-11-20T04:41:37.305Z,18.63
2022-11-20T04:44:07.022Z,19.67
2022-11-20T04:46:43.552Z,18.17
2022-11-20T04:49:12.409Z,20.27
2022-11-20T04:51:39.594Z,19.00
2022-11-20T04:54:06.637Z,20.47
2022-11-20T04:56:33.704Z,20.20
2022-11-20T04:59:03.896Z,20.37
2022-11-20T05:01:31.723Z,19.63
2022-11-20T05:03:58.775Z,20.10
2022-11-20T05:06:25.859Z,20.50
2022-11-20T05:08:52.995Z,19.43
2022-11-20T05:11:22.744Z,21.80
2022-11-20T05:13:51.678Z,21.70
2022-11-20T05:16:23.373Z,19.30
2022-11-20T05:18:52.294Z,19.50
2022-11-20T05:21:19.743Z,20.43
2022-11-20T05:23:47.391Z,19.73
2022-11-20T05:26:25.332Z,19.33
2022-11-20T05:28:53.486Z,19.37
2022-11-20T05:31:28.032Z,20.67
2022-11-20T05:33:57.751Z,20.55
2022-11-20T05:36:25.257Z,19.07
2022-11-20T05:38:55.509Z,20.20
2022-11-20T05:41:26.016Z,19.83
2022-11-20T05:43:53.286Z,20.20
2022-11-20T05:46:27.656Z,17.77
2022-11-20T05:48:55.232Z,19.50
2022-11-20T05:51:22.821Z,19.83
2022-11-20T05:53:49.914Z,20.33
2022-11-20T05:56:20.645Z,19.70
2022-11-20T05:58:49.295Z,20.07
2022-11-20T06:01:24.267Z,19.80
2022-11-20T06:03:53.254Z,21.90
2022-11-20T06:06:21.162Z,20.20
2022-11-20T06:08:48.401Z,21.17
2022-11-20T06:11:17.391Z,21.20
2022-11-20T06:13:45.648Z,21.07
2022-11-20T06:16:15.180Z,22.23
2022-11-20T06:18:42.481Z,21.37
2022-11-20T06:21:19.822Z,22.27
2022-11-20T06:23:47.766Z,22.07
2022-11-20T06:26:27.426Z,22.17
2022-11-20T06:28:57.089Z,22.07
2022-11-20T06:31:26.611Z,21.77
2022-11-20T06:33:54.219Z,22.67
2022-11-20T06:36:23.767Z,21.93
2022-11-20T06:38:51.316Z,23.60
2022-11-20T06:41:22.817Z,23.47
2022-11-20T06:43:51.035Z,21.87
2022-11-20T06:46:20.804Z,20.47
2022-11-20T06:48:49.546Z,21.23
2022-11-20T06:51:17.075Z,21.37
2022-11-20T06:53:44.212Z,20.83
2022-11-20T06:56:11.283Z,21.63
2022-11-20T06:58:38.415Z,21.17
2022-11-20T07:01:16.436Z,21.77
2022-11-20T07:03:44.031Z,20.40
2022-11-20T07:06:11.169Z,20.30
2022-11-20T07:08:38.267Z,20.40
2022-11-20T07:11:07.951Z,21.63
2022-11-20T07:13:35.380Z,22.13
2022-11-20T07:16:09.224Z,22.93
2022-11-20T07:18:37.253Z,21.83
2022-11-20T07:21:10.447Z,22.53
2022-11-20T07:23:38.212Z,21.17
2022-11-20T07:26:11.212Z,21.33
2022-11-20T07:28:39.414Z,20.77
2022-11-20T07:31:07.860Z,21.97
2022-11-20T07:33:35.096Z,22.00
2022-11-20T07:36:02.647Z,21.63
2022-11-20T07:38:31.074Z,22.00
2022-11-20T07:41:07.672Z,22.73
2022-11-20T07:43:38.457Z,22.17
2022-11-20T07:46:11.144Z,22.17
2022-11-20T07:48:38.380Z,22.87
2022-11-20T07:51:05.884Z,21.53
2022-11-20T07:53:32.915Z,22.33
2022-11-20T07:56:04.099Z,24.50
2022-11-20T07:58:34.016Z,23.07
2022-11-20T08:01:08.567Z,23.60
2022-11-20T08:03:38.750Z,22.80
2022-11-20T08:06:06.497Z,23.37
2022-11-20T08:08:42.312Z,22.13
2022-11-20T08:11:28.318Z,23.27
2022-11-20T08:14:13.371Z,22.00
2022-11-20T08:16:46.066Z,22.57
2022-11-20T08:19:15.485Z,23.00
2022-11-20T08:21:42.938Z,22.63
2022-11-20T08:24:10.756Z,23.47
2022-11-20T08:26:39.443Z,22.90
2022-11-20T08:29:07.378Z,24.33
2022-11-20T08:31:34.745Z,24.30
2022-11-20T08:34:06.265Z,23.17
2022-11-20T08:36:37.673Z,24.27
2022-11-20T08:39:05.125Z,22.07
2022-11-20T08:41:34.260Z,23.13
2022-11-20T08:44:04.750Z,22.20
2022-11-20T08:46:44.637Z,24.20
2022-11-20T08:49:14.741Z,23.67
2022-11-20T08:51:43.148Z,24.50
2022-11-20T08:54:10.479Z,23.63
2022-11-20T08:56:38.062Z,21.90
2022-11-20T09:01:52.321Z,22.13
2022-11-20T09:04:19.475Z,23.17
2022-11-20T09:06:46.588Z,22.30
2022-11-20T09:09:13.614Z,22.80
2022-11-20T09:11:40.903Z,24.57
2022-11-20T09:14:08.012Z,23.27
2022-11-20T09:16:35.142Z,23.40
2022-11-20T09:19:28.593Z,25.00
2022-11-20T09:21:49.427Z,21.87
2022-11-20T09:24:16.562Z,23.77
2022-11-20T09:26:45.273Z,23.60
2022-11-20T09:29:12.323Z,22.50
2022-11-20T09:31:39.467Z,23.70
2022-11-20T09:34:06.532Z,25.27
2022-11-20T09:36:33.612Z,23.57
2022-11-20T09:39:00.776Z,22.67
2022-11-20T09:41:33.736Z,22.63
2022-11-20T09:44:29.454Z,23.50
2022-11-20T09:46:58.649Z,23.20
2022-11-20T09:49:53.490Z,24.43
2022-11-20T09:52:55.458Z,24.63
2022-11-20T09:55:23.087Z,23.83
2022-11-20T09:57:53.491Z,22.93
2022-11-20T10:00:22.312Z,24.37
2022-11-20T10:03:08.069Z,22.57
2022-11-20T10:05:53.601Z,24.30
2022-11-20T10:08:32.933Z,23.70
2022-11-20T10:11:54.842Z,25.07
2022-11-20T10:15:14.019Z,22.73
2022-11-20T10:18:21.520Z,23.57
2022-11-20T10:20:55.277Z,22.93
2022-11-20T10:23:42.723Z,23.87
2022-11-20T10:26:24.535Z,23.43
2022-11-20T10:29:10.253Z,23.47
2022-11-20T10:31:42.055Z,23.13
2022-11-20T10:34:48.039Z,22.97
2022-11-20T10:37:27.356Z,23.83
2022-11-20T10:40:02.524Z,23.37
2022-11-20T10:42:45.279Z,20.92
2022-11-20T10:45:28.058Z,22.83
2022-11-20T10:48:32.974Z,23.00
2022-11-20T10:51:09.315Z,24.10
2022-11-20T10:54:11.405Z,23.40
2022-11-20T10:56:51.064Z,24.73
2022-11-20T10:59:41.898Z,24.30
2022-11-20T11:02:40.667Z,23.97
2022-11-20T11:05:17.915Z,24.97
2022-11-20T11:07:46.365Z,23.43
2022-11-20T11:10:57.620Z,25.93
2022-11-20T11:13:31.659Z,23.70
2022-11-20T11:15:59.544Z,24.90
2022-11-20T11:18:34.938Z,26.03
2022-11-20T11:21:06.017Z,24.33
2022-11-20T11:23:34.417Z,24.77
2022-11-20T11:26:07.709Z,25.33
2022-11-20T11:28:35.307Z,26.47
2022-11-20T11:31:02.606Z,25.87
2022-11-20T11:33:34.760Z,23.53
2022-11-20T11:36:05.810Z,25.53
2022-11-20T11:38:41.327Z,27.63
2022-11-20T11:41:17.951Z,26.08
2022-11-20T11:44:15.996Z,24.53
2022-11-20T11:46:55.126Z,24.03
2022-11-20T11:49:25.596Z,24.47
2022-11-20T11:52:11.422Z,25.23
2022-11-20T11:54:54.489Z,22.90
2022-11-20T11:57:45.916Z,25.77
2022-11-20T12:00:22.845Z,24.73
2022-11-20T12:03:06.384Z,25.97
2022-11-20T12:05:52.047Z,24.63
2022-11-20T12:08:32.514Z,24.55
2022-11-20T12:11:49.564Z,24.03
2022-11-20T12:14:35.347Z,24.42
2022-11-20T12:17:04.379Z,24.08
2022-11-20T12:19:35.715Z,24.23
2022-11-20T12:22:38.781Z,24.23
2022-11-20T12:25:28.762Z,23.75
2022-11-20T12:28:40.319Z,23.02
2022-11-20T12:31:52.800Z,24.25
2022-11-20T12:34:42.137Z,23.60
2022-11-20T12:37:52.126Z,22.88
2022-11-20T12:41:10.161Z,22.25
2022-11-20T12:44:55.165Z,22.52
2022-11-20T12:47:49.646Z,23.10
2022-11-20T12:51:20.571Z,21.63
2022-11-20T12:54:36.684Z,20.65
2022-11-20T12:57:58.367Z,21.23
2022-11-20T13:00:27.523Z,21.95
2022-11-20T13:03:35.904Z,22.98
2022-11-20T13:06:20.198Z,20.90
2022-11-20T13:08:58.531Z,21.65
2022-11-20T13:12:03.212Z,21.20
2022-11-20T13:15:04.368Z,21.63
2022-11-20T13:17:52.165Z,21.33
2022-11-20T13:20:21.957Z,21.60
2022-11-20T13:22:58.462Z,19.73
2022-11-20T13:25:36.806Z,21.95
2022-11-20T13:28:31.796Z,20.60
2022-11-20T13:31:00.914Z,21.08
2022-11-20T13:33:37.432Z,20.33
2022-11-20T13:36:08.525Z,20.38
2022-11-20T13:38:53.524Z,21.67
2022-11-20T13:41:35.502Z,22.20
2022-11-20T13:44:30.249Z,20.40
2022-11-20T13:46:57.842Z,21.55
2022-11-20T13:49:39.912Z,20.70
2022-11-20T13:52:37.814Z,19.58
2022-11-20T13:55:52.503Z,20.83
2022-11-20T13:59:15.133Z,19.55
2022-11-20T14:01:46.724Z,21.20
2022-11-20T14:04:28.559Z,20.52
2022-11-20T14:06:56.293Z,20.80
2022-11-20T14:09:32.140Z,22.38
2022-11-20T14:14:32.450Z,19.73
2022-11-20T14:17:21.608Z,20.92
2022-11-20T14:19:52.637Z,20.45
2022-11-20T14:22:25.671Z,20.17
2022-11-20T14:25:19.668Z,21.00
2022-11-20T14:27:57.370Z,21.48
2022-11-20T14:30:45.431Z,19.55
2022-11-20T14:33:16.276Z,20.10
2022-11-20T14:35:53.166Z,20.90
2022-11-20T14:38:33.250Z,19.52
2022-11-20T14:41:18.537Z,21.10
2022-11-20T14:44:00.060Z,20.67
2022-11-20T14:46:29.313Z,20.30
2022-11-20T14:49:01.790Z,20.15
2022-11-20T14:51:42.783Z,21.50
2022-11-20T14:54:19.677Z,22.75
2022-11-20T14:57:03.338Z,21.25
2022-11-20T14:59:36.325Z,18.38
2022-11-20T15:02:14.778Z,20.70
2022-11-20T15:04:51.092Z,20.98
2022-11-20T15:07:35.774Z,19.75
2022-11-20T15:10:13.759Z,19.48
2022-11-20T15:12:54.770Z,18.90
2022-11-20T15:15:51.432Z,21.67
2022-11-20T15:18:29.581Z,19.35
2022-11-20T15:20:59.654Z,21.23
2022-11-20T15:23:29.045Z,20.92
2022-11-20T15:25:57.650Z,20.05
2022-11-20T15:28:38.742Z,21.70
2022-11-20T15:31:07.125Z,20.48
2022-11-20T15:33:36.575Z,21.92
2022-11-20T15:36:05.065Z,20.63
2022-11-20T15:38:32.974Z,20.25
2022-11-20T15:41:00.976Z,20.48
2022-11-20T15:43:28.902Z,20.42
2022-11-20T15:46:11.790Z,21.25
2022-11-20T15:48:59.020Z,20.98
2022-11-20T15:51:31.148Z,21.75
2022-11-20T15:54:02.987Z,22.08
2022-11-20T15:56:30.710Z,22.08
2022-11-20T15:58:58.703Z,23.30
2022-11-20T16:01:26.767Z,24.33
2022-11-20T16:03:56.790Z,24.52
2022-11-20T16:06:27.056Z,27.25
2022-11-20T16:08:54.739Z,26.98
2022-11-20T16:11:22.896Z,27.42
2022-11-20T16:14:09.096Z,27.10
2022-11-20T16:16:42.986Z,28.02
2022-11-20T16:19:15.660Z,28.15
2022-11-20T16:21:44.403Z,26.05
2022-11-20T16:24:15.156Z,27.23
2022-11-20T16:26:43.468Z,24.33
2022-11-20T16:29:13.407Z,24.55
2022-11-20T16:31:42.650Z,26.20
2022-11-20T16:34:12.647Z,24.58
2022-11-20T16:36:46.435Z,28.52
2022-11-20T16:39:17.805Z,29.73
2022-11-20T16:41:50.059Z,27.10
2022-11-20T16:44:18.044Z,26.63
2022-11-20T16:46:46.161Z,26.50
2022-11-20T16:49:15.992Z,26.38
2022-11-20T16:51:46.425Z,27.67
2022-11-20T16:54:19.496Z,26.42
2022-11-20T16:56:49.737Z,26.70
2022-11-20T16:59:19.241Z,26.48
2022-11-20T17:01:48.411Z,26.90
2022-11-20T17:04:16.301Z,26.50
2022-11-20T17:06:48.155Z,26.98
2022-11-20T17:09:16.970Z,27.58
2022-11-20T17:11:45.199Z,25.55
2022-11-20T17:14:14.927Z,26.80
2022-11-20T17:16:43.480Z,26.47
2022-11-20T17:19:11.804Z,26.83
2022-11-20T17:21:40.487Z,29.20
2022-11-20T17:24:11.571Z,30.83
2022-11-20T17:26:42.108Z,30.92
2022-11-20T17:29:14.972Z,31.17
2022-11-20T17:31:44.407Z,29.02
2022-11-20T17:34:16.096Z,31.05
2022-11-20T17:36:46.053Z,28.67
2022-11-20T17:39:18.173Z,28.80
2022-11-20T17:42:07.021Z,30.60
2022-11-20T17:44:35.888Z,30.03
2022-11-20T17:47:03.877Z,29.23
2022-11-20T17:49:31.941Z,30.87
2022-11-20T17:52:00.206Z,30.97
2022-11-20T17:54:28.193Z,30.70
2022-11-20T17:57:16.364Z,32.20
2022-11-20T17:59:44.018Z,31.17
2022-11-20T18:02:12.146Z,33.60
2022-11-20T18:04:40.395Z,34.67
2022-11-20T18:07:08.535Z,34.13
2022-11-20T18:09:39.531Z,35.60
2022-11-20T18:12:07.524Z,36.70
2022-11-20T18:14:36.958Z,37.33
2022-11-20T18:17:09.385Z,36.90
2022-11-20T18:19:55.652Z,34.47
2022-11-20T18:22:33.072Z,36.33
2022-11-20T18:25:00.708Z,37.28
2022-11-20T18:27:28.279Z,36.55
2022-11-20T18:29:56.432Z,35.03
2022-11-20T18:32:25.988Z,34.40
2022-11-20T18:34:54.044Z,34.65
2022-11-20T18:37:22.939Z,35.50
2022-11-20T18:39:50.965Z,34.57
2022-11-20T18:42:37.199Z,34.07
2022-11-20T18:47:38.049Z,32.17
2022-11-20T18:50:09.940Z,34.80
2022-11-20T18:52:48.510Z,33.77
2022-11-20T18:55:16.693Z,34.08
2022-11-20T18:57:44.510Z,32.53
2022-11-20T19:00:13.760Z,32.80
2022-11-20T19:02:43.564Z,30.73
2022-11-20T19:05:14.351Z,33.50
2022-11-20T19:07:44.346Z,34.10
2022-11-20T19:10:12.883Z,36.33
2022-11-20T19:12:41.205Z,34.17
2022-11-20T19:15:09.689Z,36.37
2022-11-20T19:17:38.253Z,35.95
2022-11-20T19:20:08.354Z,37.03
2022-11-20T19:22:36.025Z,36.00
2022-11-20T19:25:04.355Z,38.50
2022-11-20T19:27:32.752Z,37.10
2022-11-20T19:30:03.517Z,36.93
2022-11-20T19:32:32.990Z,33.47
2022-11-20T19:35:02.484Z,35.73
2022-11-20T19:37:34.745Z,34.47
2022-11-20T19:40:04.904Z,33.35
2022-11-20T19:42:33.378Z,34.40
2022-11-20T19:45:02.719Z,37.30
2022-11-20T19:48:05.948Z,34.53
2022-11-20T19:50:22.409Z,33.27
2022-11-20T19:52:55.828Z,31.37
2022-11-20T19:55:27.675Z,30.97
2022-11-20T19:57:56.338Z,30.50
2022-11-20T20:00:29.527Z,29.93
2022-11-20T20:03:01.378Z,28.38
2022-11-20T20:05:29.693Z,28.90
2022-11-20T20:07:58.533Z,28.40
2022-11-20T20:10:27.902Z,25.80
2022-11-20T20:12:55.449Z,24.97
2022-11-20T20:15:23.556Z,26.03
2022-11-20T20:17:55.079Z,23.97
2022-11-20T20:20:24.270Z,24.87
2022-11-20T20:22:52.604Z,23.17
2022-11-20T20:25:20.969Z,21.73
2022-11-20T20:27:50.222Z,20.60
2022-11-20T20:30:19.496Z,22.07
2022-11-20T20:32:49.730Z,22.20
2022-11-20T20:35:23.035Z,20.42
2022-11-20T20:37:52.450Z,21.27
2022-11-20T20:40:22.014Z,20.20
2022-11-20T20:42:50.027Z,21.43
2022-11-20T20:45:18.298Z,21.57
2022-11-20T20:47:46.681Z,21.10
2022-11-20T20:50:15.006Z,20.20
2022-11-20T20:52:43.487Z,20.73
2022-11-20T20:55:14.910Z,20.30
2022-11-20T20:57:43.066Z,21.20
2022-11-20T21:00:21.442Z,21.40
2022-11-20T21:02:49.161Z,22.13
2022-11-20T21:05:18.090Z,23.40
2022-11-20T21:08:04.150Z,25.83
2022-11-20T21:10:41.578Z,25.83
2022-11-20T21:13:09.259Z,30.00
2022-11-20T21:15:40.621Z,29.73
2022-11-20T21:18:07.982Z,26.17
2022-11-20T21:20:54.141Z,27.40
2022-11-20T21:25:49.712Z,27.00
2022-11-20T21:28:18.450Z,25.03
2022-11-20T21:30:47.010Z,26.57
2022-11-20T21:33:14.848Z,27.47
2022-11-20T21:35:42.362Z,28.50
2022-11-20T21:38:09.523Z,28.63
2022-11-20T21:40:38.645Z,27.87
2022-11-20T21:43:05.993Z,26.63
2022-11-20T21:45:33.087Z,25.83
2022-11-20T21:48:00.222Z,28.00
2022-11-20T21:50:27.483Z,27.63
2022-11-20T21:52:54.868Z,26.67
2022-11-20T21:55:21.887Z,26.47
2022-11-20T21:57:49.152Z,25.10
2022-11-20T22:00:16.936Z,25.20
2022-11-20T22:02:43.976Z,25.67
2022-11-20T22:05:11.053Z,24.80
2022-11-20T22:07:43.604Z,26.33
2022-11-20T22:10:18.291Z,25.97
2022-11-20T22:12:45.862Z,22.88
2022-11-20T22:15:12.951Z,25.87
2022-11-20T22:17:58.806Z,23.57
2022-11-20T22:20:25.947Z,23.00
2022-11-20T22:22:53.025Z,22.83
2022-11-20T22:25:20.081Z,24.33
2022-11-20T22:27:47.495Z,23.63
2022-11-20T22:30:14.537Z,24.40
2022-11-20T22:32:41.590Z,23.67
2022-11-20T22:35:08.820Z,23.63
2022-11-20T22:37:35.918Z,24.23
2022-11-20T22:40:03.436Z,24.07
2022-11-20T22:42:30.603Z,25.80
2022-11-20T22:44:57.655Z,24.93
2022-11-20T22:47:24.706Z,25.03
2022-11-20T22:49:51.725Z,22.30
2022-11-20T22:52:18.825Z,22.20
2022-11-20T22:54:45.891Z,22.83
2022-11-20T22:57:12.899Z,21.77
2022-11-20T22:59:41.569Z,24.07
2022-11-20T23:02:08.625Z,21.10
2022-11-20T23:04:35.750Z,19.73
2022-11-20T23:07:02.882Z,22.73
2022-11-20T23:09:30.151Z,22.60
2022-11-20T23:11:57.188Z,22.17
2022-11-20T23:14:27.688Z,22.27
2022-11-20T23:16:55.056Z,23.03
2022-11-20T23:19:22.679Z,22.57
2022-11-20T23:21:49.739Z,22.10
2022-11-20T23:24:16.924Z,21.40
2022-11-20T23:26:45.252Z,23.60
2022-11-20T23:29:12.956Z,20.57
2022-11-20T23:31:40.130Z,22.43
2022-11-20T23:34:07.261Z,20.27
2022-11-20T23:36:34.314Z,19.60
2022-11-20T23:39:01.379Z,21.00
2022-11-20T23:41:28.532Z,18.73
2022-11-20T23:43:55.625Z,17.83
2022-11-20T23:46:22.753Z,19.13
2022-11-20T23:48:49.974Z,18.57
2022-11-20T23:51:17.497Z,18.83
2022-11-20T23:53:44.642Z,17.77
2022-11-20T23:56:14.533Z,16.93
2022-11-20T23:58:42.386Z,19.40
